Time;durP1;ratioP1;P1;durP2;ratioP2;P2;SDS_P1;SDS_P2;PMS_P1;PMS_P2;Temp;Humidity;BMP_temperature;BMP_pressure;BME280_temperature;BME280_humidity;BME280_pressure;Samples;Min_cycle;Max_cycle;Signal;HPM_P1;HPM_P2
2024/01/29 00:01:35;;;;;;;1.85;1.05;;;;;;;;;;4980115;28;20071;-84
2024/01/29 00:04:00;;;;;;;1.75;1.00;;;;;;;;;;4998412;28;20103;-83
2024/01/29 00:06:25;;;;;;;2.00;1.10;;;;;;;;;;5000109;28;20081;-85
2024/01/29 00:08:52;;;;;;;1.42;0.80;;;;;;;;;;4995207;28;20149;-82
2024/01/29 00:11:18;;;;;;;1.95;0.80;;;;;;;;;;4999725;28;20086;-82
2024/01/29 00:13:46;;;;;;;1.30;0.80;;;;;;;;;;4998319;28;20038;-82
2024/01/29 00:16:12;;;;;;;1.63;0.95;;;;;;;;;;4982152;28;20126;-82
2024/01/29 00:18:38;;;;;;;1.73;0.80;;;;;;;;;;4997988;28;20034;-82
2024/01/29 00:21:03;;;;;;;1.83;0.95;;;;;;;;;;4999353;28;20025;-81
2024/01/29 00:23:30;;;;;;;1.98;0.88;;;;;;;;;;4986683;28;20329;-84
2024/01/29 00:25:55;;;;;;;4.70;0.90;;;;;;;;;;4995473;28;20042;-83
2024/01/29 00:28:21;;;;;;;1.75;0.90;;;;;;;;;;4997152;28;20038;-82
2024/01/29 00:30:47;;;;;;;1.50;0.90;;;;;;;;;;4997832;28;20034;-83
2024/01/29 00:33:12;;;;;;;1.40;0.70;;;;;;;;;;4999083;28;20033;-84
2024/01/29 00:35:38;;;;;;;0.93;0.80;;;;;;;;;;4999058;28;20041;-82
2024/01/29 00:38:03;;;;;;;1.30;0.80;;;;;;;;;;5001418;28;20386;-83
2024/01/29 00:40:31;;;;;;;2.10;1.00;;;;;;;;;;4999049;28;20125;-83
2024/01/29 00:42:56;;;;;;;1.52;0.93;;;;;;;;;;4997623;28;20030;-83
2024/01/29 00:45:22;;;;;;;2.22;0.93;;;;;;;;;;4999134;28;20042;-83
2024/01/29 00:47:47;;;;;;;1.80;0.77;;;;;;;;;;4998347;28;20045;-83
2024/01/29 00:50:12;;;;;;;3.40;0.90;;;;;;;;;;4997332;28;20043;-85
2024/01/29 00:52:39;;;;;;;1.50;0.75;;;;;;;;;;4981169;28;20038;-82
2024/01/29 00:55:05;;;;;;;1.67;0.90;;;;;;;;;;5002307;28;20015;-82
2024/01/29 00:57:30;;;;;;;1.67;0.70;;;;;;;;;;5006861;28;20041;-83
2024/01/29 00:59:55;;;;;;;1.98;1.00;;;;;;;;;;5006356;28;20053;-84
2024/01/29 01:02:21;;;;;;;1.55;0.90;;;;;;;;;;5003585;28;20056;-82
2024/01/29 01:04:46;;;;;;;1.73;0.95;;;;;;;;;;4993107;28;20031;-83
2024/01/29 01:07:12;;;;;;;1.30;0.88;;;;;;;;;;4998596;28;20035;-82
2024/01/29 01:09:37;;;;;;;1.42;0.90;;;;;;;;;;4999636;28;20046;-84
2024/01/29 01:12:03;;;;;;;1.88;1.05;;;;;;;;;;4996732;28;20042;-83
2024/01/29 01:14:29;;;;;;;2.15;1.10;;;;;;;;;;4986245;28;20481;-84
2024/01/29 01:16:55;;;;;;;3.20;1.08;;;;;;;;;;4994217;28;20035;-85
2024/01/29 01:19:20;;;;;;;1.63;0.80;;;;;;;;;;4994995;28;20026;-84
2024/01/29 01:21:45;;;;;;;3.15;1.20;;;;;;;;;;4997232;28;20042;-83
2024/01/29 01:24:11;;;;;;;3.03;1.20;;;;;;;;;;4997056;28;20094;-83
2024/01/29 01:26:36;;;;;;;2.35;0.95;;;;;;;;;;4991812;28;20488;-82
2024/01/29 01:29:04;;;;;;;3.10;0.80;;;;;;;;;;4998652;28;20542;-83
2024/01/29 01:31:30;;;;;;;1.42;0.80;;;;;;;;;;4979065;28;20673;-84
2024/01/29 01:33:56;;;;;;;3.22;1.00;;;;;;;;;;4995059;28;20400;-83
2024/01/29 01:36:22;;;;;;;1.88;0.98;;;;;;;;;;4996501;28;20030;-83
2024/01/29 01:38:48;;;;;;;2.45;1.02;;;;;;;;;;4977565;28;20036;-82
2024/01/29 01:41:13;;;;;;;1.10;0.70;;;;;;;;;;5001435;28;20114;-82
2024/01/29 01:43:39;;;;;;;2.20;1.00;;;;;;;;;;5001438;28;20042;-82
2024/01/29 01:46:05;;;;;;;1.92;0.90;;;;;;;;;;4984466;28;20121;-83
2024/01/29 01:48:32;;;;;;;1.88;0.90;;;;;;;;;;4999028;28;20408;-82
2024/01/29 01:50:58;;;;;;;1.00;0.73;;;;;;;;;;4999936;28;20084;-82
2024/01/29 01:53:24;;;;;;;2.42;0.80;;;;;;;;;;4998606;28;20053;-84
2024/01/29 01:55:50;;;;;;;1.00;0.80;;;;;;;;;;4998036;28;20543;-84
2024/01/29 01:58:18;;;;;;;1.25;0.80;;;;;;;;;;4999911;28;20030;-83
2024/01/29 02:00:44;;;;;;;2.28;0.80;;;;;;;;;;5000843;28;20031;-84
2024/01/29 02:03:09;;;;;;;0.95;0.60;;;;;;;;;;4984448;28;20058;-82
2024/01/29 02:05:36;;;;;;;0.88;0.70;;;;;;;;;;5002416;28;20038;-83
2024/01/29 02:08:03;;;;;;;1.33;0.73;;;;;;;;;;4994514;28;20041;-83
2024/01/29 02:10:29;;;;;;;2.25;0.70;;;;;;;;;;4997284;28;20102;-84
2024/01/29 02:12:55;;;;;;;1.20;0.80;;;;;;;;;;4998113;28;20038;-83
2024/01/29 02:15:21;;;;;;;1.30;0.77;;;;;;;;;;4998684;28;20061;-83
2024/01/29 02:17:46;;;;;;;3.45;0.73;;;;;;;;;;4998630;28;20074;-82
2024/01/29 02:20:14;;;;;;;1.98;0.70;;;;;;;;;;4999291;28;20548;-83
2024/01/29 02:22:44;;;;;;;1.38;0.77;;;;;;;;;;5001199;28;20042;-82
2024/01/29 02:25:09;;;;;;;1.60;0.70;;;;;;;;;;5000902;28;20029;-83
2024/01/29 02:27:35;;;;;;;1.80;0.82;;;;;;;;;;4995592;28;20046;-83
2024/01/29 02:30:01;;;;;;;0.40;0.40;;;;;;;;;;4997464;28;20069;-83
2024/01/29 02:32:26;;;;;;;1.58;0.70;;;;;;;;;;4999388;28;20031;-83
2024/01/29 02:34:52;;;;;;;1.05;0.60;;;;;;;;;;4995588;28;20952;-84
2024/01/29 02:37:17;;;;;;;2.22;0.75;;;;;;;;;;4995511;28;20034;-82
2024/01/29 02:39:43;;;;;;;1.35;0.75;;;;;;;;;;5001000;28;20037;-82
2024/01/29 02:42:08;;;;;;;1.20;0.75;;;;;;;;;;5002050;28;20098;-82
2024/01/29 02:44:34;;;;;;;1.13;0.75;;;;;;;;;;4984728;28;20046;-82
2024/01/29 02:46:59;;;;;;;1.42;0.70;;;;;;;;;;5001857;28;20046;-84
2024/01/29 02:49:25;;;;;;;0.82;0.60;;;;;;;;;;5000144;28;20041;-84
2024/01/29 02:51:50;;;;;;;1.20;0.70;;;;;;;;;;4993115;28;20061;-83
2024/01/29 02:54:16;;;;;;;1.00;0.70;;;;;;;;;;4999377;28;20027;-82
2024/01/29 02:56:41;;;;;;;1.63;0.65;;;;;;;;;;5001748;28;20046;-82
2024/01/29 02:59:07;;;;;;;0.95;0.80;;;;;;;;;;4998860;28;20377;-85
2024/01/29 03:01:32;;;;;;;2.60;0.70;;;;;;;;;;4982872;28;20087;-82
2024/01/29 03:03:58;;;;;;;1.08;0.68;;;;;;;;;;4999773;28;20031;-82
2024/01/29 03:06:23;;;;;;;1.30;0.70;;;;;;;;;;4993128;28;20045;-83
2024/01/29 03:08:49;;;;;;;1.35;0.80;;;;;;;;;;4998916;28;20088;-83
2024/01/29 03:11:14;;;;;;;1.13;0.70;;;;;;;;;;4999128;28;20034;-82
2024/01/29 03:13:40;;;;;;;0.98;0.65;;;;;;;;;;5000647;28;20065;-82
2024/01/29 03:16:06;;;;;;;0.90;0.80;;;;;;;;;;4996084;28;20110;-83
2024/01/29 03:18:31;;;;;;;0.95;0.70;;;;;;;;;;4999210;28;20030;-83
2024/01/29 03:20:57;;;;;;;2.35;0.75;;;;;;;;;;4998681;28;20030;-84
2024/01/29 03:23:22;;;;;;;0.90;0.77;;;;;;;;;;4977950;28;20038;-84
2024/01/29 03:25:47;;;;;;;1.45;0.80;;;;;;;;;;4998880;28;20026;-85
2024/01/29 03:28:13;;;;;;;6.60;0.70;;;;;;;;;;4999874;28;20034;-84
2024/01/29 03:30:38;;;;;;;0.85;0.60;;;;;;;;;;5001149;28;20042;-82
2024/01/29 03:33:04;;;;;;;0.95;0.70;;;;;;;;;;4999924;28;20066;-84
2024/01/29 03:35:29;;;;;;;0.90;0.60;;;;;;;;;;4998266;28;20106;-82
2024/01/29 03:37:55;;;;;;;1.20;0.70;;;;;;;;;;4972813;28;20034;-83
2024/01/29 03:40:20;;;;;;;0.93;0.70;;;;;;;;;;4998134;28;20073;-83
2024/01/29 03:42:46;;;;;;;0.63;0.40;;;;;;;;;;4995393;28;20045;-83
2024/01/29 03:45:11;;;;;;;1.00;0.70;;;;;;;;;;4980744;28;20042;-83
2024/01/29 03:47:37;;;;;;;2.35;0.63;;;;;;;;;;4999580;28;20500;-82
2024/01/29 03:50:04;;;;;;;1.38;0.80;;;;;;;;;;4998551;28;20096;-81
2024/01/29 03:52:29;;;;;;;0.50;0.50;;;;;;;;;;4994220;28;20038;-83
2024/01/29 03:54:55;;;;;;;1.02;0.70;;;;;;;;;;4997227;28;20035;-83
2024/01/29 03:57:20;;;;;;;1.15;0.80;;;;;;;;;;4997043;28;20507;-83
2024/01/29 03:59:46;;;;;;;1.45;0.77;;;;;;;;;;4995490;28;20018;-83
2024/01/29 04:02:11;;;;;;;0.90;0.70;;;;;;;;;;4993729;28;20045;-84
2024/01/29 04:04:37;;;;;;;0.90;0.70;;;;;;;;;;4998836;28;20034;-83
2024/01/29 04:07:02;;;;;;;1.30;0.80;;;;;;;;;;4998593;28;20043;-82
2024/01/29 04:09:28;;;;;;;0.80;0.60;;;;;;;;;;4977911;28;20070;-83
2024/01/29 04:11:53;;;;;;;1.17;0.73;;;;;;;;;;5000106;28;20034;-85
2024/01/29 04:14:21;;;;;;;1.23;0.73;;;;;;;;;;4997978;28;20088;-84
2024/01/29 04:16:46;;;;;;;0.85;0.70;;;;;;;;;;4999735;28;20491;-83
2024/01/29 04:19:13;;;;;;;1.10;0.70;;;;;;;;;;4998190;28;20050;-84
2024/01/29 04:21:44;;;;;;;1.00;0.63;;;;;;;;;;4999716;28;20030;-83
2024/01/29 04:24:11;;;;;;;1.00;0.73;;;;;;;;;;4996123;28;20448;-82
2024/01/29 04:26:38;;;;;;;2.53;1.08;;;;;;;;;;4998226;28;20085;-83
2024/01/29 04:29:04;;;;;;;1.35;0.80;;;;;;;;;;4998265;28;20034;-84
2024/01/29 04:31:29;;;;;;;1.13;0.80;;;;;;;;;;4998607;28;20463;-83
2024/01/29 04:33:55;;;;;;;1.40;0.70;;;;;;;;;;4999907;28;20065;-83
2024/01/29 04:36:20;;;;;;;1.00;0.70;;;;;;;;;;4978884;28;20045;-84
2024/01/29 04:38:46;;;;;;;1.73;1.00;;;;;;;;;;4990185;28;20034;-85
2024/01/29 04:41:22;;;;;;;1.02;0.77;;;;;;;;;;4994890;28;20503;-83
2024/01/29 04:43:48;;;;;;;1.25;0.80;;;;;;;;;;4997153;28;20038;-84
2024/01/29 04:46:14;;;;;;;3.60;0.75;;;;;;;;;;4996352;28;20082;-83
2024/01/29 04:48:40;;;;;;;0.90;0.50;;;;;;;;;;4996711;28;20030;-83
2024/01/29 04:51:07;;;;;;;0.88;0.60;;;;;;;;;;4993720;28;20420;-83
2024/01/29 04:53:33;;;;;;;1.42;0.90;;;;;;;;;;4982013;28;20034;-83
2024/01/29 04:56:03;;;;;;;0.57;0.57;;;;;;;;;;4980623;28;20034;-83
2024/01/29 04:58:29;;;;;;;2.38;0.90;;;;;;;;;;4992675;28;20030;-84
2024/01/29 05:00:55;;;;;;;1.92;1.30;;;;;;;;;;4995557;28;20408;-84
2024/01/29 05:03:20;;;;;;;0.90;0.70;;;;;;;;;;4994199;28;20042;-84
2024/01/29 05:05:46;;;;;;;1.20;0.80;;;;;;;;;;4998594;28;20038;-83
2024/01/29 05:08:13;;;;;;;2.30;0.80;;;;;;;;;;4997135;28;20045;-83
2024/01/29 05:10:39;;;;;;;1.52;0.70;;;;;;;;;;4998611;28;20060;-84
2024/01/29 05:13:04;;;;;;;4.70;1.20;;;;;;;;;;4981282;28;20034;-83
2024/01/29 05:15:30;;;;;;;0.80;0.70;;;;;;;;;;5004186;28;20042;-83
2024/01/29 05:17:56;;;;;;;1.00;0.52;;;;;;;;;;5003598;28;20085;-83
2024/01/29 05:20:21;;;;;;;1.15;0.70;;;;;;;;;;5001397;28;20093;-85
2024/01/29 05:22:47;;;;;;;0.98;0.70;;;;;;;;;;4999790;28;20064;-84
2024/01/29 05:25:12;;;;;;;0.82;0.57;;;;;;;;;;5000366;28;20022;-82
2024/01/29 05:27:38;;;;;;;0.85;0.60;;;;;;;;;;5002793;28;20109;-83
2024/01/29 05:30:03;;;;;;;1.77;0.68;;;;;;;;;;5001330;28;20607;-81
2024/01/29 05:32:29;;;;;;;1.45;0.70;;;;;;;;;;5003535;28;20026;-83
2024/01/29 05:34:54;;;;;;;0.80;0.60;;;;;;;;;;5005184;28;20077;-84
2024/01/29 05:37:20;;;;;;;0.70;0.60;;;;;;;;;;5003869;28;20073;-83
2024/01/29 05:39:45;;;;;;;2.58;0.63;;;;;;;;;;5003391;28;20038;-85
2024/01/29 05:42:11;;;;;;;0.52;0.50;;;;;;;;;;5002976;28;20100;-83
2024/01/29 05:44:36;;;;;;;0.90;0.60;;;;;;;;;;5007344;28;20010;-83
2024/01/29 05:47:02;;;;;;;0.75;0.60;;;;;;;;;;4986493;28;20038;-83
2024/01/29 05:49:27;;;;;;;1.67;0.80;;;;;;;;;;5005815;28;20090;-83
2024/01/29 05:51:53;;;;;;;1.70;0.70;;;;;;;;;;5016357;28;20046;-84
2024/01/29 05:54:18;;;;;;;1.10;0.70;;;;;;;;;;5014680;28;20026;-83
2024/01/29 05:56:45;;;;;;;1.00;0.68;;;;;;;;;;5005135;28;20023;-84
2024/01/29 05:59:11;;;;;;;0.93;0.63;;;;;;;;;;5001540;28;20519;-82
2024/01/29 06:01:36;;;;;;;0.70;0.60;;;;;;;;;;4997546;28;20042;-81
2024/01/29 06:04:02;;;;;;;1.33;0.70;;;;;;;;;;4996466;28;20064;-82
2024/01/29 06:06:27;;;;;;;1.60;0.90;;;;;;;;;;5000204;28;20038;-82
2024/01/29 06:08:53;;;;;;;1.95;0.73;;;;;;;;;;5000293;28;20164;-82
2024/01/29 06:11:19;;;;;;;2.45;1.30;;;;;;;;;;4998583;28;20485;-83
2024/01/29 06:13:45;;;;;;;1.52;1.00;;;;;;;;;;4997736;28;20045;-83
2024/01/29 06:16:11;;;;;;;1.58;1.00;;;;;;;;;;4999480;28;20038;-83
2024/01/29 06:18:37;;;;;;;1.55;1.00;;;;;;;;;;4983024;28;20030;-81
2024/01/29 06:21:03;;;;;;;2.10;0.73;;;;;;;;;;4981544;28;20113;-81
2024/01/29 06:23:29;;;;;;;2.08;0.90;;;;;;;;;;4996499;28;20504;-83
2024/01/29 06:25:54;;;;;;;1.30;0.70;;;;;;;;;;4997707;28;20044;-84
2024/01/29 06:28:20;;;;;;;1.25;0.80;;;;;;;;;;4990783;28;20037;-84
2024/01/29 06:30:45;;;;;;;1.20;0.80;;;;;;;;;;4981078;28;20065;-84
2024/01/29 06:33:11;;;;;;;0.95;0.77;;;;;;;;;;4994726;28;20130;-83
2024/01/29 06:35:36;;;;;;;1.77;0.65;;;;;;;;;;4997958;28;20038;-82
2024/01/29 06:38:02;;;;;;;6.18;0.90;;;;;;;;;;4998736;28;20536;-83
2024/01/29 06:40:28;;;;;;;2.25;1.00;;;;;;;;;;4999356;28;20455;-85
2024/01/29 06:42:57;;;;;;;2.47;1.33;;;;;;;;;;4994234;28;20038;-83
2024/01/29 06:45:23;;;;;;;1.70;0.98;;;;;;;;;;4995209;28;20027;-83
2024/01/29 06:47:48;;;;;;;4.47;1.00;;;;;;;;;;4999611;28;20117;-82
2024/01/29 06:50:14;;;;;;;1.38;0.80;;;;;;;;;;4997769;28;20431;-82
2024/01/29 06:52:40;;;;;;;1.17;0.77;;;;;;;;;;4994766;28;20031;-82
2024/01/29 06:55:05;;;;;;;2.13;1.10;;;;;;;;;;4971701;28;20034;-82
2024/01/29 06:57:31;;;;;;;1.60;1.00;;;;;;;;;;4996179;28;20030;-82
2024/01/29 06:59:57;;;;;;;0.98;0.70;;;;;;;;;;4977161;28;20094;-83
2024/01/29 07:02:22;;;;;;;1.90;1.00;;;;;;;;;;4996822;28;20034;-81
2024/01/29 07:04:48;;;;;;;1.90;1.10;;;;;;;;;;4991763;28;20045;-82
2024/01/29 07:07:14;;;;;;;1.65;1.00;;;;;;;;;;4976246;28;20010;-84
2024/01/29 07:09:40;;;;;;;2.35;0.88;;;;;;;;;;4991528;28;20062;-83
2024/01/29 07:12:07;;;;;;;2.10;1.00;;;;;;;;;;4993664;28;20058;-85
2024/01/29 07:14:33;;;;;;;3.35;1.30;;;;;;;;;;4974173;28;20049;-80
2024/01/29 07:16:59;;;;;;;2.45;1.00;;;;;;;;;;4992562;28;20716;-82
2024/01/29 07:19:33;;;;;;;1.67;0.90;;;;;;;;;;4994574;28;20030;-82
2024/01/29 07:21:59;;;;;;;1.70;0.80;;;;;;;;;;4992768;28;20042;-82
2024/01/29 07:24:24;;;;;;;1.23;0.80;;;;;;;;;;4989191;28;20030;-82
2024/01/29 07:26:50;;;;;;;2.20;0.77;;;;;;;;;;4990297;28;20480;-83
2024/01/29 07:29:15;;;;;;;1.35;0.80;;;;;;;;;;4985231;28;20030;-83
2024/01/29 07:31:41;;;;;;;1.50;0.80;;;;;;;;;;4994493;28;20046;-83
2024/01/29 07:34:06;;;;;;;1.75;1.00;;;;;;;;;;4994875;28;20113;-82
2024/01/29 07:36:32;;;;;;;2.17;0.98;;;;;;;;;;4972003;28;20527;-82
2024/01/29 07:38:57;;;;;;;1.58;0.90;;;;;;;;;;4971273;28;20633;-83
2024/01/29 07:41:23;;;;;;;1.15;0.77;;;;;;;;;;4995650;28;20034;-82
2024/01/29 07:43:49;;;;;;;2.13;1.10;;;;;;;;;;4994721;28;20108;-82
2024/01/29 07:46:15;;;;;;;2.28;1.20;;;;;;;;;;4992106;28;20437;-83
2024/01/29 07:48:41;;;;;;;1.80;1.15;;;;;;;;;;4995212;28;20077;-83
2024/01/29 07:51:07;;;;;;;1.77;1.20;;;;;;;;;;4991608;28;20043;-83
2024/01/29 07:53:32;;;;;;;1.10;0.80;;;;;;;;;;4974609;28;20089;-83
2024/01/29 07:55:58;;;;;;;2.50;0.90;;;;;;;;;;4994597;28;20177;-81
2024/01/29 07:58:24;;;;;;;1.50;0.88;;;;;;;;;;4998808;28;20038;-82
2024/01/29 08:00:50;;;;;;;4.07;1.67;;;;;;;;;;4995274;28;20169;-82
2024/01/29 08:03:15;;;;;;;12.15;7.00;;;;;;;;;;4977752;28;20037;-83
2024/01/29 08:05:41;;;;;;;3.38;1.23;;;;;;;;;;4991848;28;20038;-83
2024/01/29 08:08:06;;;;;;;3.38;0.98;;;;;;;;;;4992812;28;20725;-82
2024/01/29 08:10:33;;;;;;;2.90;0.98;;;;;;;;;;4994298;28;20038;-81
2024/01/29 08:12:59;;;;;;;4.82;2.90;;;;;;;;;;4993506;28;20049;-81
2024/01/29 08:15:28;;;;;;;11.80;7.70;;;;;;;;;;4998336;28;20034;-81
2024/01/29 08:17:55;;;;;;;12.80;7.75;;;;;;;;;;4993547;28;20026;-81
2024/01/29 08:20:21;;;;;;;10.73;7.32;;;;;;;;;;4994662;28;20489;-81
2024/01/29 08:22:47;;;;;;;10.30;8.25;;;;;;;;;;4983723;28;20030;-86
2024/01/29 08:25:12;;;;;;;5.88;2.67;;;;;;;;;;4997067;28;20034;-82
2024/01/29 08:27:38;;;;;;;2.10;1.20;;;;;;;;;;4997428;28;20042;-84
2024/01/29 08:30:04;;;;;;;1.83;1.10;;;;;;;;;;4997588;28;20049;-81
2024/01/29 08:32:29;;;;;;;2.10;1.33;;;;;;;;;;4996072;28;20046;-81
2024/01/29 08:34:55;;;;;;;3.70;2.30;;;;;;;;;;4994828;28;20114;-81
2024/01/29 08:37:20;;;;;;;2.92;1.75;;;;;;;;;;4995874;28;20041;-82
2024/01/29 08:39:46;;;;;;;2.95;1.70;;;;;;;;;;4999334;28;20102;-82
2024/01/29 08:42:11;;;;;;;9.75;1.30;;;;;;;;;;4998843;28;20515;-82
2024/01/29 08:44:37;;;;;;;1.98;1.00;;;;;;;;;;4999155;28;20049;-82
2024/01/29 08:47:03;;;;;;;2.42;0.90;;;;;;;;;;4964959;28;20042;-84
2024/01/29 08:49:28;;;;;;;2.85;0.90;;;;;;;;;;4998709;28;20041;-82
2024/01/29 08:51:53;;;;;;;6.55;1.10;;;;;;;;;;4995838;28;20061;-83
2024/01/29 08:54:19;;;;;;;3.78;1.42;;;;;;;;;;4992640;28;20039;-84
2024/01/29 08:56:44;;;;;;;7.05;2.55;;;;;;;;;;4994871;28;20046;-84
2024/01/29 08:59:10;;;;;;;5.00;1.90;;;;;;;;;;4993424;28;20093;-82
2024/01/29 09:01:36;;;;;;;3.63;1.98;;;;;;;;;;4977303;28;20045;-84
2024/01/29 09:04:01;;;;;;;2.70;1.70;;;;;;;;;;4995938;28;20423;-82
2024/01/29 09:06:26;;;;;;;6.97;1.58;;;;;;;;;;4995009;28;20038;-82
2024/01/29 09:08:52;;;;;;;8.05;2.70;;;;;;;;;;4993230;28;20041;-84
2024/01/29 09:11:17;;;;;;;5.32;1.60;;;;;;;;;;4992837;28;20057;-82
2024/01/29 09:13:43;;;;;;;5.47;2.15;;;;;;;;;;4993757;28;20038;-83
2024/01/29 09:16:09;;;;;;;3.83;2.40;;;;;;;;;;4994812;28;20746;-82
2024/01/29 09:18:34;;;;;;;12.57;3.60;;;;;;;;;;4986834;28;20034;-83
2024/01/29 09:21:00;;;;;;;8.15;4.95;;;;;;;;;;4982490;28;20069;-83
2024/01/29 09:23:29;;;;;;;2.80;1.50;;;;;;;;;;4994086;28;20040;-83
2024/01/29 09:25:55;;;;;;;10.80;4.70;;;;;;;;;;4994978;28;20053;-83
2024/01/29 09:28:20;;;;;;;3.72;2.35;;;;;;;;;;4995744;28;20598;-84
2024/01/29 09:30:45;;;;;;;4.18;1.23;;;;;;;;;;4975675;28;20049;-86
2024/01/29 09:33:11;;;;;;;3.45;2.00;;;;;;;;;;4992081;28;20167;-83
2024/01/29 09:35:36;;;;;;;2.25;1.30;;;;;;;;;;4995993;28;20041;-84
2024/01/29 09:38:02;;;;;;;2.83;1.60;;;;;;;;;;4995343;28;20034;-85
2024/01/29 09:40:28;;;;;;;2.95;1.70;;;;;;;;;;4995938;28;20034;-82
2024/01/29 09:42:56;;;;;;;3.85;1.88;;;;;;;;;;4978798;28;20046;-83
2024/01/29 09:45:24;;;;;;;1.92;1.17;;;;;;;;;;4994958;28;20035;-82
2024/01/29 09:47:55;;;;;;;1.92;1.33;;;;;;;;;;4994793;28;20034;-84
2024/01/29 09:50:23;;;;;;;1.83;1.00;;;;;;;;;;4990734;28;20030;-85
2024/01/29 09:52:49;;;;;;;3.50;2.20;;;;;;;;;;4993608;28;20034;-84
2024/01/29 09:55:15;;;;;;;5.00;2.92;;;;;;;;;;4991375;28;20027;-85
2024/01/29 09:57:40;;;;;;;2.28;1.40;;;;;;;;;;4994658;28;20423;-82
2024/01/29 10:00:06;;;;;;;2.53;1.10;;;;;;;;;;4989694;28;20038;-84
2024/01/29 10:02:34;;;;;;;2.95;1.35;;;;;;;;;;4997704;28;20121;-82
2024/01/29 10:05:00;;;;;;;2.20;1.23;;;;;;;;;;5000449;28;20554;-83
2024/01/29 10:07:26;;;;;;;2.72;1.48;;;;;;;;;;5000830;28;20098;-84
2024/01/29 10:09:51;;;;;;;0.80;0.73;;;;;;;;;;4998893;28;20804;-85
2024/01/29 10:12:26;;;;;;;1.90;1.08;;;;;;;;;;4994061;28;20035;-84
2024/01/29 10:14:55;;;;;;;3.85;1.60;;;;;;;;;;4979850;28;20389;-84
2024/01/29 10:17:24;;;;;;;2.50;1.27;;;;;;;;;;5000047;28;20038;-83
2024/01/29 10:19:50;;;;;;;6.40;2.47;;;;;;;;;;4999156;28;20042;-84
2024/01/29 10:22:16;;;;;;;11.05;4.50;;;;;;;;;;5000406;28;20040;-86
2024/01/29 10:24:42;;;;;;;6.13;2.47;;;;;;;;;;4998427;28;20037;-84
2024/01/29 10:27:08;;;;;;;12.93;4.63;;;;;;;;;;4998411;28;20256;-85
2024/01/29 10:29:47;;;;;;;9.77;3.20;;;;;;;;;;4998871;28;20041;-83
2024/01/29 10:32:13;;;;;;;9.10;3.03;;;;;;;;;;4997200;28;20053;-83
2024/01/29 10:34:39;;;;;;;5.63;2.08;;;;;;;;;;4983195;28;20045;-84
2024/01/29 10:37:05;;;;;;;4.60;1.88;;;;;;;;;;4999549;28;20040;-83
2024/01/29 10:39:34;;;;;;;1.10;0.90;;;;;;;;;;5001372;28;20042;-83
2024/01/29 10:42:01;;;;;;;3.85;0.88;;;;;;;;;;4996968;28;20039;-84
2024/01/29 10:44:32;;;;;;;2.53;1.17;;;;;;;;;;4997403;28;20037;-85
2024/01/29 10:46:59;;;;;;;2.58;1.20;;;;;;;;;;4996133;28;20031;-83
2024/01/29 10:49:28;;;;;;;5.38;2.50;;;;;;;;;;4999350;28;20030;-83
2024/01/29 10:51:55;;;;;;;3.55;1.55;;;;;;;;;;5000531;28;20041;-83
2024/01/29 10:54:21;;;;;;;2.35;0.90;;;;;;;;;;4995510;28;20034;-86
2024/01/29 10:56:47;;;;;;;4.55;2.05;;;;;;;;;;4997791;28;20124;-84
2024/01/29 10:59:13;;;;;;;10.48;4.10;;;;;;;;;;4980436;28;20030;-84
2024/01/29 11:01:41;;;;;;;3.10;1.80;;;;;;;;;;5000231;28;20042;-85
2024/01/29 11:04:09;;;;;;;3.17;1.63;;;;;;;;;;4995012;28;20472;-85
2024/01/29 11:06:53;;;;;;;1.30;0.90;;;;;;;;;;4996912;28;20031;-85
2024/01/29 11:09:24;;;;;;;1.80;1.20;;;;;;;;;;5000194;28;20400;-86
2024/01/29 11:11:51;;;;;;;5.30;2.83;;;;;;;;;;4996565;28;20419;-85
2024/01/29 11:14:24;;;;;;;1.92;1.20;;;;;;;;;;4994942;28;20027;-84
2024/01/29 11:16:52;;;;;;;4.10;2.10;;;;;;;;;;4991876;28;20045;-84
2024/01/29 11:19:21;;;;;;;3.53;2.03;;;;;;;;;;4992818;28;20028;-84
2024/01/29 11:21:50;;;;;;;2.72;1.60;;;;;;;;;;4997678;28;20105;-82
2024/01/29 11:24:16;;;;;;;21.63;5.03;;;;;;;;;;5000655;28;20424;-83
2024/01/29 11:26:42;;;;;;;50.05;14.00;;;;;;;;;;5003074;28;20038;-83
2024/01/29 11:29:10;;;;;;;13.90;4.78;;;;;;;;;;5002201;28;20046;-84
2024/01/29 11:31:43;;;;;;;5.70;2.85;;;;;;;;;;4976307;28;20692;-84
2024/01/29 11:34:09;;;;;;;2.42;1.30;;;;;;;;;;4978928;28;20049;-82
2024/01/29 11:36:38;;;;;;;1.35;0.80;;;;;;;;;;4995035;28;20038;-82
2024/01/29 11:39:08;;;;;;;2.42;1.00;;;;;;;;;;4984113;28;20034;-83
2024/01/29 11:41:35;;;;;;;1.88;1.25;;;;;;;;;;4994697;28;20034;-82
2024/01/29 11:44:02;;;;;;;2.53;0.88;;;;;;;;;;4995761;28;20046;-83
2024/01/29 11:46:28;;;;;;;2.35;0.90;;;;;;;;;;4995237;28;20033;-82
2024/01/29 11:49:00;;;;;;;2.35;1.10;;;;;;;;;;4990453;28;20468;-81
2024/01/29 11:51:27;;;;;;;1.73;0.85;;;;;;;;;;4974687;28;20061;-82
2024/01/29 11:53:53;;;;;;;1.52;0.80;;;;;;;;;;4994257;28;20094;-83
2024/01/29 11:56:19;;;;;;;2.90;0.95;;;;;;;;;;4993310;28;20064;-83
2024/01/29 11:58:46;;;;;;;3.03;1.10;;;;;;;;;;4983785;28;20034;-81
2024/01/29 12:01:12;;;;;;;4.57;0.90;;;;;;;;;;4991216;28;20089;-81
2024/01/29 12:03:38;;;;;;;1.33;0.60;;;;;;;;;;4994794;28;20034;-82
2024/01/29 12:06:06;;;;;;;1.10;0.57;;;;;;;;;;4989318;28;20670;-82
2024/01/29 12:08:32;;;;;;;2.45;0.60;;;;;;;;;;4990452;28;20085;-82
2024/01/29 12:11:02;;;;;;;3.05;0.60;;;;;;;;;;4988933;28;20034;-82
2024/01/29 12:13:28;;;;;;;1.13;0.60;;;;;;;;;;4992397;28;20068;-81
2024/01/29 12:15:56;;;;;;;1.17;0.60;;;;;;;;;;4994169;28;20030;-82
2024/01/29 12:18:24;;;;;;;1.15;0.73;;;;;;;;;;4988597;28;20026;-81
2024/01/29 12:20:50;;;;;;;1.33;0.70;;;;;;;;;;4993434;28;20042;-84
2024/01/29 12:23:17;;;;;;;2.78;0.80;;;;;;;;;;4990037;28;20030;-84
2024/01/29 12:25:46;;;;;;;1.48;0.75;;;;;;;;;;4990589;28;20555;-81
2024/01/29 12:28:15;;;;;;;1.02;0.63;;;;;;;;;;4989417;28;20552;-84
2024/01/29 12:30:56;;;;;;;1.42;0.70;;;;;;;;;;4993058;28;20038;-80
2024/01/29 12:33:29;;;;;;;0.73;0.50;;;;;;;;;;4992510;28;20092;-86
2024/01/29 12:36:09;;;;;;;2.83;0.60;;;;;;;;;;4991990;28;20034;-82
2024/01/29 12:38:35;;;;;;;1.67;0.73;;;;;;;;;;4991071;28;20031;-81
2024/01/29 12:41:00;;;;;;;1.77;1.00;;;;;;;;;;4989467;28;20093;-83
2024/01/29 12:43:29;;;;;;;0.85;0.60;;;;;;;;;;4990730;28;20114;-81
2024/01/29 12:46:12;;;;;;;0.85;0.60;;;;;;;;;;4986345;28;20045;-82
2024/01/29 12:48:37;;;;;;;1.10;0.73;;;;;;;;;;4990260;28;20096;-81
2024/01/29 12:51:06;;;;;;;1.80;1.05;;;;;;;;;;4973597;28;20031;-82
2024/01/29 12:53:32;;;;;;;1.75;1.00;;;;;;;;;;4991607;28;20052;-82
2024/01/29 12:55:58;;;;;;;1.73;1.10;;;;;;;;;;4991670;28;20042;-83
2024/01/29 12:58:24;;;;;;;2.55;1.20;;;;;;;;;;4992338;28;20096;-82
2024/01/29 13:00:51;;;;;;;3.90;1.08;;;;;;;;;;4989145;28;20049;-81
2024/01/29 13:03:17;;;;;;;2.38;1.00;;;;;;;;;;4991458;28;20709;-82
2024/01/29 13:05:42;;;;;;;3.10;1.00;;;;;;;;;;4992726;28;20046;-80
2024/01/29 13:08:08;;;;;;;1.58;1.08;;;;;;;;;;4992605;28;20050;-82
2024/01/29 13:10:34;;;;;;;2.05;1.08;;;;;;;;;;4981281;28;20049;-83
2024/01/29 13:13:09;;;;;;;4.00;1.00;;;;;;;;;;4978922;28;20038;-84
2024/01/29 13:15:35;;;;;;;2.08;1.15;;;;;;;;;;4995095;28;20041;-85
2024/01/29 13:18:00;;;;;;;2.65;1.30;;;;;;;;;;4994430;28;20039;-82
2024/01/29 13:20:26;;;;;;;3.05;1.30;;;;;;;;;;4979123;28;20034;-86
2024/01/29 13:22:52;;;;;;;3.83;1.60;;;;;;;;;;4995441;28;20050;-85
2024/01/29 13:25:18;;;;;;;3.45;1.63;;;;;;;;;;4996063;28;20061;-85
2024/01/29 13:27:44;;;;;;;11.65;4.65;;;;;;;;;;4994159;28;20074;-86
2024/01/29 13:30:10;;;;;;;2.47;1.50;;;;;;;;;;4995767;28;20034;-84
2024/01/29 13:32:36;;;;;;;2.72;1.40;;;;;;;;;;4996676;28;20231;-82
2024/01/29 13:35:02;;;;;;;2.15;1.15;;;;;;;;;;5001345;28;20160;-83
2024/01/29 13:37:27;;;;;;;3.00;1.42;;;;;;;;;;5005554;28;20216;-81
2024/01/29 13:39:53;;;;;;;3.60;1.90;;;;;;;;;;4985773;28;20404;-80
2024/01/29 13:42:18;;;;;;;6.72;3.30;;;;;;;;;;4995648;28;20034;-81
2024/01/29 13:44:44;;;;;;;4.95;2.40;;;;;;;;;;4984430;28;20523;-80
2024/01/29 13:47:10;;;;;;;6.28;2.65;;;;;;;;;;5002288;28;20046;-81
2024/01/29 13:49:35;;;;;;;11.18;3.83;;;;;;;;;;5001671;28;20038;-82
2024/01/29 13:52:02;;;;;;;6.70;3.30;;;;;;;;;;5002879;28;20073;-81
2024/01/29 13:54:28;;;;;;;4.80;2.10;;;;;;;;;;5000920;28;20045;-82
2024/01/29 13:56:53;;;;;;;4.93;1.90;;;;;;;;;;5000837;28;20031;-81
2024/01/29 13:59:19;;;;;;;5.03;1.50;;;;;;;;;;4998054;28;20038;-82
2024/01/29 14:01:44;;;;;;;2.78;1.70;;;;;;;;;;4997578;28;20492;-80
2024/01/29 14:04:10;;;;;;;8.07;3.05;;;;;;;;;;4996325;28;20587;-81
2024/01/29 14:06:36;;;;;;;2.40;1.50;;;;;;;;;;4997977;28;20045;-80
2024/01/29 14:09:01;;;;;;;3.47;1.30;;;;;;;;;;4996530;28;20053;-82
2024/01/29 14:11:27;;;;;;;3.78;1.30;;;;;;;;;;4992318;28;20038;-81
2024/01/29 14:13:52;;;;;;;2.70;1.10;;;;;;;;;;4991364;28;20151;-81
2024/01/29 14:16:18;;;;;;;3.28;1.30;;;;;;;;;;4995350;28;20062;-82
2024/01/29 14:18:46;;;;;;;3.55;1.50;;;;;;;;;;4995775;28;20093;-82
2024/01/29 14:21:11;;;;;;;1.80;1.20;;;;;;;;;;4995619;28;20471;-82
2024/01/29 14:23:37;;;;;;;3.95;1.67;;;;;;;;;;4985192;28;20035;-81
2024/01/29 14:26:03;;;;;;;3.95;2.03;;;;;;;;;;4992450;28;20113;-81
2024/01/29 14:28:31;;;;;;;5.88;3.42;;;;;;;;;;4996085;28;20111;-81
2024/01/29 14:30:56;;;;;;;5.75;2.08;;;;;;;;;;4992506;28;20051;-82
2024/01/29 14:33:22;;;;;;;2.70;1.67;;;;;;;;;;4990452;28;20038;-84
2024/01/29 14:35:47;;;;;;;3.40;1.80;;;;;;;;;;4994407;28;20038;-83
2024/01/29 14:38:13;;;;;;;3.45;1.90;;;;;;;;;;4979483;28;20027;-82